LFRL

Lanvéoc-Poulmic Air Base

Airport
ICAO code
LFRL
Summary
ICAO Region
EUR
ICAO Territory
Location

, Bretagne

Serving
Lanvedoc
Elevation
287 ft
Coordinates
48° 16' 54" N , 4° 26' 42" W
Metar
LFRL 180000Z AUTO 06004KT 1100 0600 R23/1200D R05/0750D BCFG BKN001 12/11 Q1012

Runways

Designator Length Width Surface Rops
6/24 0 0 UNK No/No
13/31 650 54 GRS No/No
5/23 1108 40 ASP No/No

Airport map

Aerial View

SKYbrary Partners:

Safety knowledge contributed by: